createdAt,value
2023-04-08T00:09:54.444Z,8
2023-04-08T00:20:00.191Z,8
2023-04-08T00:30:05.113Z,8
2023-04-08T00:40:10.036Z,10
2023-04-08T00:50:17.621Z,8
2023-04-08T01:00:24.431Z,9
2023-04-08T01:10:31.389Z,11
2023-04-08T01:20:37.209Z,9
2023-04-08T01:30:42.998Z,8
2023-04-08T01:40:49.320Z,8
2023-04-08T01:50:56.026Z,8
2023-04-08T02:01:01.758Z,9
2023-04-08T02:11:08.257Z,9
2023-04-08T02:21:14.765Z,8
2023-04-08T02:31:22.010Z,9
2023-04-08T02:41:29.443Z,10
2023-04-08T02:51:36.097Z,10
2023-04-08T03:01:41.243Z,11
2023-04-08T03:11:46.420Z,9
2023-04-08T03:21:52.222Z,9
2023-04-08T03:31:58.638Z,7
2023-04-08T03:42:04.703Z,8
2023-04-08T03:52:11.361Z,8
2023-04-08T04:02:17.913Z,10
2023-04-08T04:12:22.834Z,10
2023-04-08T04:22:28.602Z,8
2023-04-08T04:32:34.049Z,8
2023-04-08T04:42:39.676Z,9
2023-04-08T04:52:45.794Z,7
2023-04-08T05:02:53.082Z,10
2023-04-08T05:12:58.474Z,10
2023-04-08T05:23:05.668Z,10
2023-04-08T05:33:11.204Z,10
2023-04-08T05:43:17.086Z,13
2023-04-08T05:53:22.634Z,13
2023-04-08T06:03:29.511Z,13
2023-04-08T06:13:34.857Z,14
2023-04-08T06:23:41.545Z,12
2023-04-08T06:33:47.144Z,11
2023-04-08T06:43:52.929Z,10
2023-04-08T06:54:00.049Z,10
2023-04-08T07:04:06.874Z,9
2023-04-08T07:14:14.384Z,10
2023-04-08T07:24:20.634Z,8
2023-04-08T07:34:26.693Z,8
2023-04-08T07:44:33.931Z,7
2023-04-08T07:54:40.440Z,9
2023-04-08T08:04:48.999Z,8
2023-04-08T08:14:54.491Z,7
2023-04-08T08:25:01.159Z,8
2023-04-08T08:35:08.231Z,9
2023-04-08T08:45:14.028Z,10
2023-04-08T08:55:32.896Z,10
2023-04-08T09:06:07.146Z,14
2023-04-08T09:16:11.777Z,11
2023-04-08T09:26:17.851Z,9
2023-04-08T09:36:24.963Z,15
2023-04-08T09:46:29.856Z,26
2023-04-08T09:56:36.593Z,24
2023-04-08T10:06:41.946Z,31
2023-04-08T10:16:49.499Z,29
2023-04-08T10:26:53.752Z,28
2023-04-08T10:36:59.800Z,28
2023-04-08T10:47:06.636Z,24
2023-04-08T10:57:12.158Z,25
2023-04-08T11:07:18.734Z,25
2023-04-08T11:17:24.449Z,23
2023-04-08T11:27:31.122Z,23
2023-04-08T11:37:36.184Z,21
2023-04-08T11:47:42.980Z,21
2023-04-08T11:57:49.620Z,23
2023-04-08T12:07:56.952Z,21
2023-04-08T12:18:02.038Z,24
2023-04-08T12:28:08.504Z,22
2023-04-08T12:38:15.073Z,20
2023-04-08T12:48:21.257Z,25
2023-04-08T12:58:27.485Z,18
2023-04-08T13:08:33.753Z,20
2023-04-08T13:18:40.270Z,24
2023-04-08T13:28:56.367Z,22
2023-04-08T13:38:52.958Z,22
2023-04-08T13:48:58.991Z,20
2023-04-08T13:59:10.865Z,22
2023-04-08T14:09:13.033Z,19
2023-04-08T14:19:19.948Z,19
2023-04-08T14:29:27.274Z,22
2023-04-08T14:39:32.436Z,20
2023-04-08T14:49:36.778Z,24
2023-04-08T14:59:43.356Z,20
2023-04-08T15:09:48.315Z,17
2023-04-08T15:19:53.094Z,21
2023-04-08T15:29:59.026Z,21
2023-04-08T15:40:05.374Z,20
2023-04-08T15:50:11.099Z,21
2023-04-08T16:00:19.243Z,30
2023-04-08T16:10:24.051Z,34
2023-04-08T16:20:30.639Z,32
2023-04-08T16:30:36.536Z,28
2023-04-08T16:40:42.918Z,33
2023-04-08T16:50:49.421Z,36
2023-04-08T17:00:56.822Z,35
2023-04-08T17:11:02.047Z,28
2023-04-08T17:21:08.336Z,28
2023-04-08T17:31:14.732Z,27
2023-04-08T17:41:35.397Z,28
2023-04-08T17:51:35.314Z,24
2023-04-08T18:01:42.051Z,37
2023-04-08T18:11:48.093Z,30
2023-04-08T18:21:53.146Z,37
2023-04-08T18:31:58.877Z,31
2023-04-08T18:42:04.556Z,28
2023-04-08T18:52:11.045Z,32
2023-04-08T19:02:17.130Z,41
2023-04-08T19:12:21.701Z,39
2023-04-08T19:22:26.873Z,35
2023-04-08T19:32:31.486Z,36
2023-04-08T19:42:36.831Z,33
2023-04-08T19:52:42.994Z,27
2023-04-08T20:02:49.521Z,29
2023-04-08T20:12:55.419Z,26
2023-04-08T20:23:02.334Z,25
2023-04-08T20:33:08.630Z,30
2023-04-08T20:43:14.004Z,28
2023-04-08T20:53:21.483Z,26
2023-04-08T21:03:27.338Z,23
2023-04-08T21:13:30.954Z,22
2023-04-08T21:23:36.181Z,25
2023-04-08T21:33:42.206Z,33
2023-04-08T21:43:48.886Z,27
2023-04-08T21:53:54.647Z,28
2023-04-08T22:04:00.959Z,24
2023-04-08T22:14:06.432Z,24
2023-04-08T22:24:12.930Z,25
2023-04-08T22:34:19.937Z,23
2023-04-08T22:44:25.936Z,22
2023-04-08T22:54:32.314Z,23
2023-04-08T23:04:39.692Z,21
2023-04-08T23:14:45.930Z,25
2023-04-08T23:24:52.267Z,23
2023-04-08T23:34:59.199Z,23
2023-04-08T23:45:06.139Z,25
2023-04-08T23:55:12.126Z,25
